Time;durP1;ratioP1;P1;durP2;ratioP2;P2;SDS_P1;SDS_P2;PMS_P1;PMS_P2;Temp;Humidity;BMP_temperature;BMP_pressure;BME280_temperature;BME280_humidity;BME280_pressure;Samples;Min_cycle;Max_cycle;Signal;HPM_P1;HPM_P2
2022/12/05 00:07:29;;;;;;;12.82;7.32;;;3.70;99.90;;;;;;20696622;28;20037;-41
2022/12/05 00:17:31;;;;;;;16.35;9.57;;;3.80;99.90;;;;;;20701718;28;20046;-41
2022/12/05 00:27:32;;;;;;;18.55;8.43;;;3.80;99.90;;;;;;20694111;28;20041;-41
2022/12/05 00:37:33;;;;;;;15.77;7.22;;;3.90;99.90;;;;;;20693976;28;20046;-41
2022/12/05 00:47:35;;;;;;;17.23;10.25;;;3.90;99.90;;;;;;20698217;28;20116;-41
2022/12/05 00:57:36;;;;;;;13.65;8.00;;;4.00;99.90;;;;;;20700392;28;20054;-41
2022/12/05 01:07:37;;;;;;;13.15;8.10;;;4.10;99.90;;;;;;20685421;28;20505;-41
2022/12/05 01:17:38;;;;;;;17.63;7.97;;;4.20;99.90;;;;;;20624462;28;20038;-41
2022/12/05 01:27:39;;;;;;;20.80;10.27;;;4.10;99.90;;;;;;20624895;28;20121;-40
2022/12/05 01:37:40;;;;;;;16.65;8.38;;;4.10;99.90;;;;;;20604192;28;20057;-41
2022/12/05 01:47:42;;;;;;;13.18;6.90;;;4.20;99.90;;;;;;20617994;28;20222;-41
2022/12/05 01:57:46;;;;;;;17.67;9.02;;;4.20;99.90;;;;;;20623628;28;20898;-40
2022/12/05 02:07:47;;;;;;;24.13;9.02;;;4.10;99.90;;;;;;20619320;28;20053;-41
2022/12/05 02:17:48;;;;;;;16.73;8.63;;;4.20;99.90;;;;;;20629925;28;20054;-40
2022/12/05 02:28:29;;;;;;;13.65;6.30;;;4.20;99.90;;;;;;20613142;28;20527;-41
2022/12/05 02:39:03;;;;;;;17.88;8.95;;;4.20;99.90;;;;;;20605215;28;21847;-41
2022/12/05 02:49:08;;;;;;;15.43;8.27;;;4.20;99.90;;;;;;20630302;28;21664;-41
2022/12/05 02:59:09;;;;;;;15.55;7.68;;;4.30;99.90;;;;;;20650511;28;20039;-41
2022/12/05 03:09:14;;;;;;;15.10;8.85;;;4.20;99.90;;;;;;20646769;28;20045;-40
2022/12/05 03:19:29;;;;;;;18.05;9.73;;;4.20;99.90;;;;;;20650954;28;20050;-41
2022/12/05 03:29:47;;;;;;;18.83;9.23;;;4.30;99.90;;;;;;20652476;28;20058;-41
2022/12/05 03:40:16;;;;;;;14.25;7.85;;;4.20;99.90;;;;;;20650265;28;20821;-41
2022/12/05 03:50:26;;;;;;;16.10;7.65;;;4.40;99.90;;;;;;20647112;28;20922;-41
2022/12/05 04:00:31;;;;;;;15.10;8.20;;;4.40;99.90;;;;;;20661043;28;20175;-41
2022/12/05 04:10:47;;;;;;;13.88;6.75;;;4.40;99.90;;;;;;20657753;28;20093;-41
2022/12/05 04:31:32;;;;;;;9.13;6.07;;;4.40;99.90;;;;;;20631611;28;22799;-41
2022/12/05 04:41:38;;;;;;;12.23;6.75;;;4.60;99.90;;;;;;20679323;28;20073;-41
2022/12/05 04:51:40;;;;;;;11.43;6.63;;;4.60;99.90;;;;;;20636055;28;20509;-41
2022/12/05 05:01:50;;;;;;;10.88;6.95;;;4.60;99.90;;;;;;20681985;28;20053;-41
2022/12/05 05:11:51;;;;;;;12.65;7.43;;;4.60;99.90;;;;;;20591493;28;20048;-41
2022/12/05 05:21:52;;;;;;;11.50;6.75;;;4.70;99.90;;;;;;20608843;28;20260;-41
2022/12/05 05:31:53;;;;;;;15.32;8.07;;;4.70;99.90;;;;;;20608349;28;20466;-41
2022/12/05 05:41:54;;;;;;;15.27;7.03;;;4.80;99.90;;;;;;20599690;28;20050;-41
2022/12/05 05:51:55;;;;;;;19.10;8.32;;;4.80;99.90;;;;;;20605196;28;20034;-41
2022/12/05 06:01:56;;;;;;;11.45;7.55;;;4.90;99.90;;;;;;20601342;28;20453;-41
2022/12/05 06:11:57;;;;;;;14.18;7.35;;;4.80;99.90;;;;;;20609013;28;20437;-41
2022/12/05 06:21:58;;;;;;;12.52;7.50;;;4.90;99.90;;;;;;20600050;28;20050;-41
2022/12/05 06:31:59;;;;;;;12.68;7.03;;;5.10;99.90;;;;;;20619408;28;20054;-41
2022/12/05 06:42:01;;;;;;;14.88;7.35;;;5.10;99.90;;;;;;20620938;28;20104;-41
2022/12/05 06:52:02;;;;;;;14.15;6.85;;;5.10;99.90;;;;;;20613907;28;20046;-41
2022/12/05 07:02:06;;;;;;;19.95;7.20;;;5.20;99.90;;;;;;20614612;28;20050;-41
2022/12/05 07:12:07;;;;;;;10.40;5.50;;;5.30;99.90;;;;;;20615790;28;20034;-41
2022/12/05 07:22:08;;;;;;;10.85;5.60;;;5.30;99.90;;;;;;20619064;28;20046;-41
2022/12/05 07:32:10;;;;;;;11.55;4.78;;;5.40;99.90;;;;;;20612485;28;20045;-41
2022/12/05 07:42:11;;;;;;;7.43;4.18;;;5.40;99.90;;;;;;20598609;28;20109;-41
2022/12/05 07:52:12;;;;;;;8.90;4.15;;;5.40;99.90;;;;;;20600674;28;20604;-41
2022/12/05 08:02:13;;;;;;;5.53;3.97;;;5.50;99.90;;;;;;20606575;28;20050;-41
2022/12/05 08:12:14;;;;;;;9.48;4.00;;;5.50;99.90;;;;;;20608187;28;20199;-41
2022/12/05 08:22:15;;;;;;;6.65;4.00;;;5.50;99.90;;;;;;20680590;28;20053;-41
2022/12/05 08:32:16;;;;;;;11.63;5.30;;;5.50;99.90;;;;;;20680159;28;20243;-41
2022/12/05 08:42:17;;;;;;;8.73;4.90;;;5.60;99.90;;;;;;20680382;28;20054;-41
2022/12/05 08:52:18;;;;;;;6.50;3.17;;;5.60;99.90;;;;;;20703107;28;20042;-41
2022/12/05 09:02:19;;;;;;;5.85;3.05;;;5.70;99.90;;;;;;20702011;28;20053;-41
2022/12/05 09:12:20;;;;;;;5.50;3.55;;;5.80;99.90;;;;;;20665238;28;20053;-41
2022/12/05 09:22:21;;;;;;;8.82;4.47;;;5.80;99.90;;;;;;20668125;28;20046;-41
2022/12/05 09:32:22;;;;;;;3.10;1.98;;;5.80;99.90;;;;;;20682495;28;20057;-41
2022/12/05 09:42:48;;;;;;;3.63;2.25;;;5.90;99.90;;;;;;20609612;28;20140;-41
2022/12/05 09:53:08;;;;;;;4.93;2.72;;;5.90;99.90;;;;;;20604616;28;20919;-41
2022/12/05 10:03:26;;;;;;;4.55;2.75;;;6.00;99.90;;;;;;20628025;28;20245;-41
2022/12/05 10:13:54;;;;;;;3.45;1.88;;;6.10;99.90;;;;;;20610451;28;20077;-41
2022/12/05 10:24:01;;;;;;;2.97;1.65;;;6.10;99.90;;;;;;20614308;28;20887;-41
2022/12/05 10:34:11;;;;;;;2.17;1.40;;;6.10;99.90;;;;;;20625895;28;20489;-41
2022/12/05 10:44:12;;;;;;;2.92;1.40;;;6.10;99.90;;;;;;20687414;28;20057;-41
2022/12/05 10:54:28;;;;;;;2.67;1.35;;;6.10;99.90;;;;;;20691359;28;20041;-41
2022/12/05 11:04:42;;;;;;;2.28;0.77;;;6.10;99.90;;;;;;20681639;28;20081;-41
2022/12/05 11:15:18;;;;;;;4.22;1.50;;;6.10;99.90;;;;;;20620636;28;20809;-41
2022/12/05 11:25:34;;;;;;;3.47;1.20;;;6.20;99.90;;;;;;20610684;28;20291;-41
2022/12/05 11:35:35;;;;;;;4.10;1.70;;;6.20;99.90;;;;;;20595833;28;20063;-41
2022/12/05 11:46:10;;;;;;;3.50;2.05;;;6.30;99.90;;;;;;20635227;28;20096;-41
2022/12/05 11:56:30;;;;;;;4.82;2.05;;;6.30;99.90;;;;;;20704941;28;21848;-41
2022/12/05 12:07:02;;;;;;;6.53;1.70;;;6.30;99.90;;;;;;20701772;28;20085;-41
2022/12/05 12:17:20;;;;;;;4.18;1.55;;;6.30;99.90;;;;;;20698421;28;20899;-41
2022/12/05 12:27:31;;;;;;;3.10;1.75;;;6.30;99.90;;;;;;20730720;28;20099;-41
2022/12/05 12:37:37;;;;;;;2.28;1.08;;;6.30;99.90;;;;;;20739520;28;20045;-41
2022/12/05 12:48:06;;;;;;;3.83;1.57;;;6.40;99.90;;;;;;20736909;28;20411;-41
2022/12/05 12:58:27;;;;;;;6.68;2.53;;;6.30;99.90;;;;;;20620592;28;20830;-41
2022/12/05 13:08:39;;;;;;;4.63;2.42;;;6.30;99.90;;;;;;20672406;28;20042;-41
2022/12/05 13:18:40;;;;;;;4.80;2.28;;;6.30;99.90;;;;;;20673567;28;20049;-41
2022/12/05 13:28:55;;;;;;;5.03;2.15;;;6.30;99.90;;;;;;20668045;28;20041;-41
2022/12/05 13:49:43;;;;;;;7.15;2.88;;;6.40;99.90;;;;;;20652204;28;20037;-41
2022/12/05 14:00:06;;;;;;;4.30;1.92;;;6.30;99.90;;;;;;20641536;28;20899;-41
2022/12/05 14:10:10;;;;;;;4.13;2.22;;;6.30;99.90;;;;;;20632229;28;20077;-41
2022/12/05 14:20:46;;;;;;;3.97;2.17;;;6.30;99.90;;;;;;20656730;28;20069;-41
2022/12/05 14:31:29;;;;;;;3.40;1.65;;;6.40;99.90;;;;;;20635568;28;20691;-41
2022/12/05 14:41:34;;;;;;;3.50;2.40;;;6.30;99.90;;;;;;20632254;28;20860;-41
2022/12/05 14:51:39;;;;;;;3.67;2.13;;;6.20;99.90;;;;;;20662681;28;20057;-41
2022/12/05 15:01:47;;;;;;;4.78;1.85;;;6.20;99.90;;;;;;20685220;28;20101;-41
2022/12/05 15:11:50;;;;;;;3.80;2.35;;;6.20;99.90;;;;;;20582586;28;20882;-41
2022/12/05 15:21:55;;;;;;;4.13;2.50;;;6.10;99.90;;;;;;20599952;28;20125;-41
2022/12/05 15:32:02;;;;;;;7.18;2.47;;;6.10;99.90;;;;;;20591910;28;20259;-41
2022/12/05 15:42:14;;;;;;;6.07;2.40;;;6.20;99.90;;;;;;20579544;28;20779;-41
2022/12/05 15:52:37;;;;;;;3.25;1.70;;;6.10;99.90;;;;;;20573121;28;20142;-41
2022/12/05 16:02:47;;;;;;;4.07;2.15;;;6.10;99.90;;;;;;20609763;28;20498;-41
2022/12/05 16:12:50;;;;;;;3.30;1.50;;;6.00;99.90;;;;;;20581982;28;20663;-41
2022/12/05 16:22:53;;;;;;;2.10;1.25;;;6.10;99.90;;;;;;20583073;28;20096;-41
2022/12/05 16:32:59;;;;;;;3.17;1.73;;;6.10;99.90;;;;;;20592051;28;20957;-41
2022/12/05 16:43:06;;;;;;;3.63;1.92;;;6.10;99.90;;;;;;20586165;28;20142;-41
2022/12/05 16:53:07;;;;;;;3.63;1.60;;;6.10;99.90;;;;;;20617201;28;20469;-41
2022/12/05 17:03:12;;;;;;;4.50;1.70;;;6.10;99.90;;;;;;20623046;28;20603;-41
2022/12/05 17:13:14;;;;;;;4.05;1.45;;;6.10;99.90;;;;;;20599151;28;20118;-41
2022/12/05 17:23:16;;;;;;;3.10;1.52;;;6.00;99.90;;;;;;20574439;28;20143;-41
2022/12/05 17:33:18;;;;;;;2.45;1.25;;;6.00;99.90;;;;;;20579023;28;20183;-41
2022/12/05 17:43:19;;;;;;;4.32;1.38;;;6.10;99.90;;;;;;20582205;28;20136;-41
2022/12/05 17:53:20;;;;;;;2.17;1.33;;;6.10;99.90;;;;;;20593905;28;20070;-41
2022/12/05 18:03:21;;;;;;;6.97;2.75;;;6.00;99.90;;;;;;20587198;28;20073;-41
2022/12/05 18:13:23;;;;;;;3.35;1.63;;;6.20;99.90;;;;;;20606192;28;20038;-41
2022/12/05 18:23:23;;;;;;;3.55;1.45;;;6.10;99.90;;;;;;20596314;28;20133;-41
2022/12/05 18:33:24;;;;;;;2.97;1.10;;;6.20;99.90;;;;;;20600291;28;20053;-41
2022/12/05 18:43:25;;;;;;;4.15;1.25;;;6.20;99.90;;;;;;20592190;28;20335;-41
2022/12/05 18:53:28;;;;;;;1.35;0.70;;;6.10;99.90;;;;;;20581305;28;20124;-41
2022/12/05 19:03:31;;;;;;;3.05;1.38;;;6.10;99.90;;;;;;20568237;28;20115;-41
2022/12/05 19:13:32;;;;;;;1.67;0.85;;;6.00;99.90;;;;;;20564555;28;20073;-41
2022/12/05 19:23:34;;;;;;;9.27;5.05;;;6.10;99.90;;;;;;20553456;28;20819;-41
2022/12/05 19:33:36;;;;;;;3.17;1.83;;;6.10;99.90;;;;;;20559784;28;20450;-41
2022/12/05 19:43:38;;;;;;;5.03;3.35;;;6.20;99.90;;;;;;20578253;28;20111;-41
2022/12/05 19:53:41;;;;;;;9.30;4.70;;;6.10;99.90;;;;;;20585081;28;21356;-41
2022/12/05 20:03:50;;;;;;;4.47;2.28;;;6.10;99.90;;;;;;20581475;28;20594;-41
2022/12/05 20:13:53;;;;;;;9.20;5.07;;;6.10;99.90;;;;;;20576959;28;20951;-41
2022/12/05 20:23:54;;;;;;;10.23;5.90;;;6.10;99.90;;;;;;20576608;28;21994;-41
2022/12/05 20:33:55;;;;;;;5.15;2.88;;;6.10;99.90;;;;;;20583327;28;20070;-41
2022/12/05 20:44:00;;;;;;;5.72;3.55;;;6.10;99.90;;;;;;20576841;28;20140;-41
2022/12/05 20:54:02;;;;;;;3.75;2.03;;;6.20;99.90;;;;;;20580592;28;20073;-41
2022/12/05 21:04:05;;;;;;;4.03;1.98;;;6.10;99.90;;;;;;20583221;28;20137;-41
2022/12/05 21:14:06;;;;;;;10.40;2.75;;;6.20;99.90;;;;;;20567825;28;20069;-41
2022/12/05 21:24:08;;;;;;;6.35;2.08;;;6.10;99.90;;;;;;20600760;28;20050;-41
2022/12/05 21:34:19;;;;;;;3.28;1.67;;;6.20;99.90;;;;;;20621487;28;20046;-39
2022/12/05 21:44:20;;;;;;;4.05;1.65;;;6.10;99.90;;;;;;20632581;28;20613;-39
2022/12/05 21:54:21;;;;;;;6.63;2.53;;;6.10;99.90;;;;;;20634581;28;20823;-39
2022/12/05 22:04:22;;;;;;;2.40;1.35;;;6.10;99.90;;;;;;20632926;28;20479;-39
2022/12/05 22:14:23;;;;;;;7.82;2.35;;;6.10;99.90;;;;;;20636275;28;20030;-39
2022/12/05 22:24:24;;;;;;;3.47;1.63;;;6.10;99.90;;;;;;20613907;28;20053;-39
2022/12/05 22:34:25;;;;;;;4.10;1.88;;;6.10;99.90;;;;;;20641234;28;20069;-41
2022/12/05 22:44:26;;;;;;;6.55;3.13;;;6.10;99.90;;;;;;20641700;28;20061;-41
2022/12/05 22:54:27;;;;;;;3.45;1.63;;;6.10;99.90;;;;;;20608067;28;20043;-41
2022/12/05 23:04:28;;;;;;;3.00;1.77;;;6.10;99.90;;;;;;20628006;28;20096;-41
2022/12/05 23:14:29;;;;;;;5.15;2.50;;;6.10;99.90;;;;;;20688668;28;20638;-41
2022/12/05 23:24:30;;;;;;;4.00;1.75;;;6.10;99.90;;;;;;20669663;28;20081;-41
2022/12/05 23:34:31;;;;;;;9.25;1.73;;;6.10;99.90;;;;;;20626985;28;20047;-41
2022/12/05 23:44:32;;;;;;;2.38;1.10;;;6.10;99.90;;;;;;20611357;28;20050;-41
2022/12/05 23:54:34;;;;;;;2.92;1.38;;;6.10;99.90;;;;;;20607482;28;20773;-41
